createdAt,value
2023-04-18T00:01:51.750Z,7.18
2023-04-18T00:03:53.618Z,7.13
2023-04-18T00:05:55.845Z,7.43
2023-04-18T00:07:57.299Z,6.93
2023-04-18T00:09:58.754Z,7.07
2023-04-18T00:12:01.584Z,7.35
2023-04-18T00:14:03.392Z,7.38
2023-04-18T00:16:05.991Z,6.63
2023-04-18T00:18:08.457Z,6.63
2023-04-18T00:20:12.992Z,6.60
2023-04-18T00:22:16.452Z,7.15
2023-04-18T00:24:17.949Z,6.90
2023-04-18T00:26:19.644Z,7.25
2023-04-18T00:28:21.145Z,7.38
2023-04-18T00:30:22.623Z,8.00
2023-04-18T00:32:24.284Z,7.30
2023-04-18T00:34:25.778Z,7.85
2023-04-18T00:36:27.818Z,7.82
2023-04-18T00:38:29.298Z,7.28
2023-04-18T00:40:30.804Z,7.45
2023-04-18T00:42:32.787Z,8.38
2023-04-18T00:44:34.270Z,7.97
2023-04-18T00:46:35.783Z,8.10
2023-04-18T00:48:39.163Z,9.68
2023-04-18T00:50:41.676Z,8.10
2023-04-18T00:52:44.652Z,8.43
2023-04-18T00:54:47.330Z,8.25
2023-04-18T00:56:48.883Z,8.35
2023-04-18T00:58:50.456Z,7.68
2023-04-18T01:00:52.190Z,8.05
2023-04-18T01:02:55.753Z,8.32
2023-04-18T01:04:58.633Z,7.10
2023-04-18T01:07:01.482Z,6.57
2023-04-18T01:09:05.222Z,7.40
2023-04-18T01:11:06.741Z,6.50
2023-04-18T01:13:15.931Z,5.78
2023-04-18T01:15:17.423Z,4.80
2023-04-18T01:17:19.251Z,5.22
2023-04-18T01:19:20.757Z,6.00
2023-04-18T01:21:22.562Z,4.97
2023-04-18T01:23:24.071Z,4.70
2023-04-18T01:25:25.924Z,4.18
2023-04-18T01:27:27.408Z,4.30
2023-04-18T01:29:29.126Z,4.57
2023-04-18T01:31:30.820Z,4.57
2023-04-18T01:33:32.292Z,4.47
2023-04-18T01:35:34.248Z,4.15
2023-04-18T01:37:35.890Z,4.80
2023-04-18T01:39:37.375Z,5.47
2023-04-18T01:41:39.205Z,4.97
2023-04-18T01:43:40.659Z,5.30
2023-04-18T01:45:42.158Z,5.45
2023-04-18T01:47:44.113Z,5.32
2023-04-18T01:49:48.165Z,6.30
2023-04-18T01:51:49.660Z,6.43
2023-04-18T01:53:51.145Z,6.70
2023-04-18T01:55:52.715Z,6.50
2023-04-18T01:57:54.181Z,6.82
2023-04-18T01:59:55.734Z,6.75
2023-04-18T02:01:57.438Z,7.13
2023-04-18T02:03:59.051Z,6.75
2023-04-18T02:06:01.910Z,8.10
2023-04-18T02:08:03.509Z,6.63
2023-04-18T02:10:05.607Z,7.90
2023-04-18T02:12:07.398Z,6.78
2023-04-18T02:14:09.001Z,8.00
2023-04-18T02:16:13.985Z,7.60
2023-04-18T02:18:17.355Z,7.90
2023-04-18T02:20:18.868Z,7.38
2023-04-18T02:22:20.418Z,8.07
2023-04-18T02:24:21.972Z,8.20
2023-04-18T02:26:23.773Z,8.40
2023-04-18T02:28:25.228Z,8.10
2023-04-18T02:30:27.133Z,8.57
2023-04-18T02:32:28.637Z,9.00
2023-04-18T02:34:30.378Z,8.23
2023-04-18T02:36:31.967Z,8.98
2023-04-18T02:38:33.438Z,8.75
2023-04-18T02:40:34.913Z,8.50
2023-04-18T02:42:36.485Z,9.45
2023-04-18T02:44:37.932Z,8.95
2023-04-18T02:46:39.418Z,9.60
2023-04-18T02:48:41.055Z,10.70
2023-04-18T02:50:42.505Z,8.98
2023-04-18T02:52:44.120Z,10.40
2023-04-18T02:54:45.703Z,9.73
2023-04-18T02:56:47.245Z,10.20
2023-04-18T02:58:49.136Z,10.65
2023-04-18T03:00:53.675Z,9.38
2023-04-18T03:02:55.490Z,10.90
2023-04-18T03:04:57.074Z,10.85
2023-04-18T03:06:59.389Z,11.93
2023-04-18T03:09:00.867Z,10.18
2023-04-18T03:11:02.336Z,10.95
2023-04-18T03:13:04.134Z,10.98
2023-04-18T03:15:06.353Z,11.98
2023-04-18T03:17:07.860Z,10.82
2023-04-18T03:19:09.633Z,10.85
2023-04-18T03:21:11.766Z,11.80
2023-04-18T03:23:13.238Z,11.75
2023-04-18T03:25:14.814Z,11.30
2023-04-18T03:27:16.368Z,11.75
2023-04-18T03:29:17.876Z,11.60
2023-04-18T03:31:19.447Z,11.82
2023-04-18T03:33:20.921Z,10.68
2023-04-18T03:35:22.422Z,12.32
2023-04-18T03:37:23.865Z,12.25
2023-04-18T03:39:25.435Z,12.45
2023-04-18T03:41:27.045Z,12.98
2023-04-18T03:43:28.546Z,13.95
2023-04-18T03:45:30.350Z,13.70
2023-04-18T03:47:32.116Z,13.98
2023-04-18T03:49:33.626Z,13.65
2023-04-18T03:51:43.822Z,13.90
2023-04-18T03:53:45.342Z,13.60
2023-04-18T03:55:46.887Z,14.35
2023-04-18T03:57:48.371Z,14.50
2023-04-18T03:59:49.950Z,14.77
2023-04-18T04:01:51.503Z,14.88
2023-04-18T04:03:53.468Z,13.68
2023-04-18T04:05:55.304Z,14.90
2023-04-18T04:07:56.858Z,14.40
2023-04-18T04:09:58.698Z,15.80
2023-04-18T04:12:00.158Z,15.52
2023-04-18T04:14:02.187Z,16.67
2023-04-18T04:16:04.706Z,16.20
2023-04-18T04:18:06.553Z,16.75
2023-04-18T04:20:08.517Z,16.05
2023-04-18T04:22:10.082Z,16.67
2023-04-18T04:24:11.850Z,17.80
2023-04-18T04:26:15.110Z,16.45
2023-04-18T04:28:16.867Z,17.08
2023-04-18T04:30:18.329Z,17.83
2023-04-18T04:32:22.610Z,17.33
2023-04-18T04:34:24.133Z,18.33
2023-04-18T04:36:27.189Z,18.08
2023-04-18T04:38:30.854Z,19.15
2023-04-18T04:40:32.531Z,18.73
2023-04-18T04:42:34.640Z,20.15
2023-04-18T04:44:37.450Z,18.38
2023-04-18T04:46:40.305Z,17.42
2023-04-18T04:48:42.418Z,17.88
2023-04-18T04:50:51.950Z,17.55
2023-04-18T04:52:53.429Z,19.45
2023-04-18T04:54:54.900Z,18.42
2023-04-18T04:56:56.541Z,16.75
2023-04-18T04:58:58.226Z,18.63
2023-04-18T05:00:59.771Z,18.00
2023-04-18T05:03:02.218Z,17.88
2023-04-18T05:05:04.090Z,17.25
2023-04-18T05:07:05.805Z,17.92
2023-04-18T05:09:07.305Z,18.08
2023-04-18T05:11:08.790Z,18.35
2023-04-18T05:13:10.338Z,17.58
2023-04-18T05:15:12.643Z,16.35
2023-04-18T05:17:14.139Z,16.88
2023-04-18T05:19:15.744Z,15.98
2023-04-18T05:21:17.248Z,16.63
2023-04-18T05:23:18.717Z,17.40
2023-04-18T05:25:20.420Z,16.65
2023-04-18T05:27:21.993Z,15.93
2023-04-18T05:29:23.471Z,16.35
2023-04-18T05:31:25.841Z,16.55
2023-04-18T05:33:31.665Z,16.55
2023-04-18T05:35:33.165Z,16.35
2023-04-18T05:37:34.683Z,16.85
2023-04-18T05:39:36.246Z,15.98
2023-04-18T05:41:37.700Z,16.45
2023-04-18T05:43:39.178Z,17.10
2023-04-18T05:45:40.782Z,16.80
2023-04-18T05:47:42.270Z,16.10
2023-04-18T05:49:43.918Z,16.30
2023-04-18T05:51:46.225Z,16.05
2023-04-18T05:53:47.788Z,16.10
2023-04-18T05:55:50.134Z,17.23
2023-04-18T05:57:51.679Z,16.42
2023-04-18T05:59:53.170Z,16.63
2023-04-18T06:01:54.910Z,16.35
2023-04-18T06:03:56.724Z,15.48
2023-04-18T06:05:58.575Z,15.32
2023-04-18T06:08:00.147Z,15.88
2023-04-18T06:10:01.745Z,15.65
2023-04-18T06:12:03.622Z,15.38
2023-04-18T06:14:05.075Z,15.63
2023-04-18T06:16:06.818Z,15.30
2023-04-18T06:18:08.372Z,16.65
2023-04-18T06:20:10.682Z,15.65
2023-04-18T06:22:12.171Z,16.08
2023-04-18T06:24:13.874Z,16.20
2023-04-18T06:26:15.937Z,16.02
2023-04-18T06:28:17.452Z,15.00
2023-04-18T06:30:21.896Z,15.13
2023-04-18T06:32:23.507Z,16.17
2023-04-18T06:34:25.431Z,14.65
2023-04-18T06:36:27.509Z,15.90
2023-04-18T06:38:29.085Z,16.45
2023-04-18T06:40:30.646Z,16.25
2023-04-18T06:42:32.163Z,15.35
2023-04-18T06:44:33.712Z,15.82
2023-04-18T06:46:35.322Z,15.13
2023-04-18T06:48:36.859Z,13.95
2023-04-18T06:50:38.361Z,13.85
2023-04-18T06:52:44.291Z,12.93
2023-04-18T06:54:45.844Z,12.52
2023-04-18T06:56:47.580Z,12.15
2023-04-18T06:58:49.646Z,13.40
2023-04-18T07:00:52.048Z,12.88
2023-04-18T07:02:53.918Z,12.48
2023-04-18T07:04:55.494Z,12.32
2023-04-18T07:06:56.989Z,10.60
2023-04-18T07:09:01.309Z,10.88
2023-04-18T07:11:03.003Z,11.18
2023-04-18T07:13:04.819Z,11.88
2023-04-18T07:15:06.835Z,11.00
2023-04-18T07:17:08.374Z,11.85
2023-04-18T07:19:09.942Z,11.20
2023-04-18T07:21:11.512Z,11.60
2023-04-18T07:29:02.713Z,10.82
2023-04-18T07:31:04.589Z,10.95
2023-04-18T07:33:06.456Z,10.45
2023-04-18T07:35:08.418Z,10.88
2023-04-18T07:37:09.880Z,10.18
2023-04-18T07:39:11.396Z,11.63
2023-04-18T07:41:13.187Z,12.00
2023-04-18T07:43:15.021Z,10.90
2023-04-18T07:45:16.575Z,10.80
2023-04-18T07:47:22.293Z,11.57
2023-04-18T07:49:24.079Z,11.23
2023-04-18T07:51:31.181Z,11.27
2023-04-18T07:53:33.853Z,9.50
2023-04-18T07:55:35.418Z,9.63
2023-04-18T07:57:36.907Z,10.10
2023-04-18T07:59:38.382Z,10.70
2023-04-18T08:01:39.870Z,8.40
2023-04-18T08:03:41.791Z,6.97
2023-04-18T08:05:43.513Z,7.13
2023-04-18T08:07:45.097Z,7.10
2023-04-18T08:09:46.707Z,7.55
2023-04-18T08:11:48.256Z,7.45
2023-04-18T08:13:49.764Z,7.25
2023-04-18T08:15:51.281Z,7.07
2023-04-18T08:17:53.892Z,7.15
2023-04-18T08:19:55.398Z,7.18
2023-04-18T08:22:08.192Z,7.30
2023-04-18T08:24:09.726Z,7.55
2023-04-18T08:26:11.248Z,7.25
2023-04-18T08:28:13.803Z,7.00
2023-04-18T08:30:15.622Z,7.53
2023-04-18T08:32:17.110Z,7.45
2023-04-18T08:34:18.700Z,6.65
2023-04-18T08:36:21.207Z,7.10
2023-04-18T08:38:22.734Z,6.82
2023-04-18T08:40:24.565Z,6.55
2023-04-18T08:42:26.820Z,6.63
2023-04-18T08:44:29.083Z,6.95
2023-04-18T08:46:35.808Z,5.78
2023-04-18T08:48:37.358Z,6.43
2023-04-18T08:50:38.947Z,6.95
2023-04-18T08:52:47.410Z,6.47
2023-04-18T08:54:50.146Z,5.63
2023-04-18T08:57:09.962Z,5.10
2023-04-18T08:59:11.612Z,4.47
2023-04-18T09:01:15.087Z,5.05
2023-04-18T09:03:16.809Z,4.80
2023-04-18T09:05:19.784Z,4.85
2023-04-18T09:07:31.117Z,5.10
2023-04-18T09:09:46.911Z,5.05
2023-04-18T09:11:48.414Z,5.40
2023-04-18T09:13:50.467Z,4.05
2023-04-18T09:15:56.128Z,4.53
2023-04-18T09:18:00.236Z,4.30
2023-04-18T09:20:05.279Z,4.47
2023-04-18T09:22:08.270Z,4.13
2023-04-18T09:24:22.541Z,4.70
2023-04-18T09:26:34.810Z,4.47
2023-04-18T09:28:37.410Z,3.67
2023-04-18T09:30:41.103Z,4.03
2023-04-18T09:32:45.036Z,3.75
2023-04-18T09:34:47.221Z,3.38
2023-04-18T09:37:05.898Z,3.15
2023-04-18T10:09:34.534Z,1.88
2023-04-18T10:11:36.627Z,2.20
2023-04-18T10:13:41.652Z,1.95
2023-04-18T10:15:44.291Z,1.95
2023-04-18T10:18:04.297Z,1.90
2023-04-18T10:20:08.399Z,1.83
2023-04-18T10:22:11.607Z,1.95
2023-04-18T10:24:45.093Z,1.75
2023-04-18T10:26:47.301Z,2.03
2023-04-18T10:28:51.146Z,2.10
2023-04-18T10:30:56.184Z,2.20
2023-04-18T10:32:57.760Z,2.33
2023-04-18T10:35:00.181Z,2.10
2023-04-18T10:37:05.419Z,2.20
2023-04-18T10:39:25.531Z,2.17
2023-04-18T10:41:29.548Z,2.35
2023-04-18T10:43:31.023Z,2.63
2023-04-18T10:45:36.448Z,2.53
2023-04-18T10:47:38.123Z,2.80
2023-04-18T10:49:39.671Z,2.65
2023-04-18T10:51:41.492Z,2.92
2023-04-18T10:53:56.352Z,2.60
2023-04-18T10:55:57.925Z,2.78
2023-04-18T10:57:59.584Z,3.17
2023-04-18T11:00:01.583Z,3.15
2023-04-18T11:02:23.234Z,2.85
2023-04-18T11:04:25.708Z,3.30
2023-04-18T11:06:27.765Z,3.88
2023-04-18T11:08:30.145Z,3.05
2023-04-18T11:10:31.762Z,3.22
2023-04-18T11:12:36.423Z,2.95
2023-04-18T11:14:46.130Z,3.47
2023-04-18T11:16:47.641Z,3.20
2023-04-18T11:18:49.123Z,3.78
2023-04-18T11:20:51.640Z,3.63
2023-04-18T11:22:54.541Z,5.03
2023-04-18T11:25:07.134Z,3.70
2023-04-18T11:27:10.423Z,3.88
2023-04-18T11:29:11.874Z,3.20
2023-04-18T11:31:16.140Z,3.53
2023-04-18T11:33:17.705Z,4.40
2023-04-18T11:35:19.227Z,3.42
2023-04-18T11:37:21.044Z,3.47
2023-04-18T11:39:22.790Z,3.17
2023-04-18T11:41:24.360Z,3.58
2023-04-18T11:43:25.983Z,4.07
2023-04-18T11:45:27.588Z,4.72
2023-04-18T11:47:31.733Z,3.30
2023-04-18T11:49:33.338Z,3.45
2023-04-18T11:51:35.958Z,4.25
2023-04-18T11:53:38.891Z,3.40
2023-04-18T11:55:40.498Z,3.47
2023-04-18T11:57:42.199Z,3.72
2023-04-18T12:00:00.828Z,3.47
2023-04-18T12:02:15.487Z,3.13
2023-04-18T12:04:19.100Z,3.70
2023-04-18T12:06:21.013Z,3.88
2023-04-18T12:08:22.538Z,3.72
2023-04-18T12:10:26.171Z,3.58
2023-04-18T12:12:27.960Z,3.75
2023-04-18T12:14:30.400Z,3.47
2023-04-18T12:16:33.438Z,3.17
2023-04-18T12:18:35.069Z,2.60
2023-04-18T12:20:38.067Z,2.75
2023-04-18T12:22:50.160Z,3.15
2023-04-18T12:25:20.098Z,3.20
2023-04-18T12:27:21.658Z,2.90
2023-04-18T12:29:23.836Z,3.00
2023-04-18T12:31:25.700Z,2.85
2023-04-18T12:33:27.550Z,3.20
2023-04-18T12:35:30.769Z,2.53
2023-04-18T12:37:32.309Z,2.63
2023-04-18T12:39:33.765Z,2.80
2023-04-18T12:41:35.286Z,3.03
2023-04-18T12:43:36.780Z,2.40
2023-04-18T12:45:38.344Z,2.80
2023-04-18T12:47:41.467Z,2.20
2023-04-18T12:49:42.944Z,2.22
2023-04-18T12:51:44.639Z,2.83
2023-04-18T12:53:46.120Z,2.22
2023-04-18T12:55:47.616Z,2.75
2023-04-18T12:57:51.705Z,2.42
2023-04-18T12:59:53.222Z,2.50
2023-04-18T13:01:55.042Z,2.80
2023-04-18T13:04:08.374Z,2.40
2023-04-18T13:06:13.738Z,2.15
2023-04-18T13:08:17.804Z,2.00
2023-04-18T13:10:21.904Z,2.22
2023-04-18T13:12:23.345Z,2.80
2023-04-18T13:14:24.874Z,2.28
2023-04-18T13:16:26.386Z,2.35
2023-04-18T13:18:27.858Z,2.33
2023-04-18T13:20:29.311Z,2.53
2023-04-18T13:22:31.541Z,1.98
2023-04-18T13:24:33.089Z,2.10
2023-04-18T13:26:36.061Z,2.53
2023-04-18T13:28:37.660Z,2.10
2023-04-18T13:30:39.328Z,2.47
2023-04-18T13:32:41.222Z,2.65
2023-04-18T13:34:46.580Z,2.60
2023-04-18T13:36:48.052Z,2.17
2023-04-18T13:38:51.181Z,2.50
2023-04-18T13:41:04.352Z,2.30
2023-04-18T13:43:13.141Z,2.20
2023-04-18T13:45:14.624Z,2.33
2023-04-18T13:47:16.289Z,2.50
2023-04-18T13:49:17.823Z,2.00
2023-04-18T13:51:19.312Z,2.65
2023-04-18T13:53:21.220Z,2.45
2023-04-18T13:55:22.809Z,2.00
2023-04-18T13:57:24.288Z,2.10
2023-04-18T14:36:28.870Z,2.55
2023-04-18T14:38:30.882Z,2.70
2023-04-18T14:40:33.158Z,2.45
2023-04-18T14:42:34.733Z,3.03
2023-04-18T14:44:36.220Z,2.55
2023-04-18T14:46:37.738Z,2.92
2023-04-18T14:48:39.213Z,2.55
2023-04-18T14:50:40.809Z,2.33
2023-04-18T14:52:42.579Z,2.63
2023-04-18T14:54:44.039Z,2.88
2023-04-18T14:56:45.674Z,2.65
2023-04-18T14:58:47.233Z,2.70
2023-04-18T15:00:49.227Z,2.72
2023-04-18T15:02:50.851Z,2.92
2023-04-18T15:04:53.398Z,3.28
2023-04-18T15:06:54.944Z,2.85
2023-04-18T15:08:56.680Z,2.60
2023-04-18T15:10:58.170Z,3.00
2023-04-18T15:12:59.656Z,2.53
2023-04-18T15:15:01.163Z,2.97
2023-04-18T15:17:05.540Z,2.83
2023-04-18T15:19:07.037Z,3.03
2023-04-18T15:21:08.628Z,3.30
2023-04-18T15:23:13.631Z,3.53
2023-04-18T15:25:18.199Z,3.20
2023-04-18T15:27:19.748Z,2.92
2023-04-18T15:29:21.222Z,2.65
2023-04-18T15:31:23.350Z,2.65
2023-04-18T15:33:25.231Z,3.10
2023-04-18T15:35:26.741Z,2.90
2023-04-18T15:37:28.310Z,3.30
2023-04-18T15:39:29.875Z,3.03
2023-04-18T15:41:34.300Z,3.45
2023-04-18T15:43:35.876Z,3.08
2023-04-18T15:45:37.407Z,3.05
2023-04-18T15:47:39.011Z,3.15
2023-04-18T15:49:40.518Z,2.90
2023-04-18T15:51:41.994Z,3.15
2023-04-18T15:53:43.592Z,2.80
2023-04-18T15:55:46.902Z,2.95
2023-04-18T15:57:48.356Z,2.95
2023-04-18T15:59:49.830Z,3.35
2023-04-18T16:01:51.541Z,3.45
2023-04-18T16:03:53.137Z,2.95
2023-04-18T16:05:54.658Z,3.50
2023-04-18T16:07:56.341Z,3.03
2023-04-18T16:09:57.868Z,3.33
2023-04-18T16:11:59.341Z,3.58
2023-04-18T16:14:00.903Z,3.10
2023-04-18T16:16:06.324Z,3.47
2023-04-18T16:18:08.553Z,3.78
2023-04-18T16:20:10.795Z,3.45
2023-04-18T16:22:12.440Z,3.28
2023-04-18T16:24:15.878Z,3.30
2023-04-18T16:26:17.540Z,3.13
2023-04-18T16:28:18.988Z,3.70
2023-04-18T16:30:20.938Z,3.67
2023-04-18T16:32:22.431Z,3.35
2023-04-18T16:34:24.030Z,3.75
2023-04-18T16:36:26.028Z,4.10
2023-04-18T16:38:27.560Z,3.90
2023-04-18T16:40:30.694Z,4.45
2023-04-18T16:42:32.460Z,4.65
2023-04-18T16:44:33.966Z,4.38
2023-04-18T16:46:35.638Z,4.28
2023-04-18T16:48:38.660Z,3.83
2023-04-18T16:50:40.205Z,4.18
2023-04-18T16:52:41.859Z,4.43
2023-04-18T16:54:44.443Z,4.13
2023-04-18T16:56:45.941Z,4.20
2023-04-18T16:58:47.442Z,4.20
2023-04-18T17:00:49.181Z,4.05
2023-04-18T17:02:50.859Z,4.43
2023-04-18T17:04:52.495Z,4.43
2023-04-18T17:06:54.104Z,4.45
2023-04-18T17:08:55.750Z,4.28
2023-04-18T17:10:57.378Z,4.95
2023-04-18T17:12:59.173Z,5.60
2023-04-18T17:15:00.603Z,5.03
2023-04-18T17:17:02.080Z,5.75
2023-04-18T17:19:03.585Z,5.22
2023-04-18T17:21:05.138Z,5.32
2023-04-18T17:23:06.657Z,5.47
2023-04-18T17:25:08.536Z,6.10
2023-04-18T17:27:09.990Z,5.47
2023-04-18T17:29:11.481Z,5.47
2023-04-18T17:31:16.233Z,6.22
2023-04-18T17:33:17.767Z,5.80
2023-04-18T17:35:19.556Z,5.75
2023-04-18T17:37:22.366Z,5.85
2023-04-18T17:39:23.912Z,5.90
2023-04-18T17:41:25.688Z,5.68
2023-04-18T17:43:27.673Z,6.22
2023-04-18T17:45:29.231Z,5.78
2023-04-18T17:47:32.594Z,6.75
2023-04-18T17:49:36.684Z,6.45
2023-04-18T17:51:38.160Z,6.32
2023-04-18T17:53:39.605Z,6.63
2023-04-18T17:55:41.129Z,6.03
2023-04-18T17:57:42.648Z,5.90
2023-04-18T17:59:44.150Z,6.30
2023-04-18T18:01:46.100Z,6.45
2023-04-18T18:03:48.759Z,5.85
2023-04-18T18:05:50.722Z,6.53
2023-04-18T18:07:53.351Z,6.38
2023-04-18T18:09:55.269Z,5.82
2023-04-18T18:11:57.017Z,6.57
2023-04-18T18:13:59.221Z,5.95
2023-04-18T18:16:02.011Z,6.30
2023-04-18T18:18:03.567Z,6.07
2023-04-18T18:20:13.324Z,6.63
2023-04-18T18:22:15.711Z,6.60
2023-04-18T18:24:18.641Z,6.43
2023-04-18T18:26:20.222Z,6.18
2023-04-18T18:28:21.713Z,6.07
2023-04-18T18:30:23.254Z,5.97
2023-04-18T18:32:26.734Z,6.15
2023-04-18T18:34:29.811Z,6.70
2023-04-18T18:36:31.504Z,6.32
2023-04-18T18:38:32.948Z,5.80
2023-04-18T18:40:34.416Z,6.10
2023-04-18T18:42:36.712Z,5.68
2023-04-18T18:44:38.186Z,6.30
2023-04-18T18:46:40.618Z,6.38
2023-04-18T18:48:43.106Z,5.78
2023-04-18T18:50:44.556Z,5.80
2023-04-18T18:52:46.142Z,6.82
2023-04-18T18:54:47.583Z,6.38
2023-04-18T18:56:49.079Z,6.35
2023-04-18T18:58:53.305Z,7.68
2023-04-18T19:00:56.151Z,6.13
2023-04-18T19:02:57.816Z,5.47
2023-04-18T19:04:59.465Z,5.70
2023-04-18T19:07:01.033Z,6.22
2023-04-18T19:09:02.614Z,5.80
2023-04-18T19:11:04.382Z,5.80
2023-04-18T19:13:05.894Z,6.10
2023-04-18T19:15:08.051Z,6.38
2023-04-18T19:17:09.752Z,5.93
2023-04-18T19:19:11.433Z,5.93
2023-04-18T19:21:13.671Z,5.90
2023-04-18T19:23:16.859Z,6.25
2023-04-18T19:25:18.446Z,6.00
2023-04-18T19:27:19.978Z,6.28
2023-04-18T19:29:22.403Z,6.57
2023-04-18T19:31:23.953Z,5.80
2023-04-18T19:33:25.631Z,5.90
2023-04-18T19:35:27.754Z,6.18
2023-04-18T19:37:29.545Z,5.65
2023-04-18T19:39:31.138Z,6.10
2023-04-18T19:41:32.601Z,5.50
2023-04-18T19:43:34.671Z,5.80
2023-04-18T19:45:36.414Z,5.55
2023-04-18T19:47:38.298Z,5.22
2023-04-18T19:49:39.760Z,5.65
2023-04-18T19:51:41.262Z,6.00
2023-04-18T19:53:42.814Z,5.40
2023-04-18T19:55:45.182Z,5.13
2023-04-18T19:57:47.818Z,5.30
2023-04-18T19:59:49.269Z,5.60
2023-04-18T20:01:50.776Z,5.05
2023-04-18T20:03:52.544Z,4.70
2023-04-18T20:05:54.289Z,5.50
2023-04-18T20:07:55.799Z,5.13
2023-04-18T20:09:57.298Z,5.53
2023-04-18T20:12:00.497Z,5.20
2023-04-18T20:14:02.199Z,5.47
2023-04-18T20:16:08.792Z,4.85
2023-04-18T20:18:10.704Z,5.97
2023-04-18T20:20:13.051Z,5.35
2023-04-18T20:22:14.978Z,5.88
2023-04-18T20:24:16.506Z,6.15
2023-04-18T20:26:18.039Z,5.35
2023-04-18T20:28:19.500Z,5.82
2023-04-18T20:30:22.019Z,5.50
2023-04-18T20:32:23.483Z,5.03
2023-04-18T20:34:25.010Z,5.13
2023-04-18T20:36:26.542Z,5.18
2023-04-18T20:38:29.678Z,5.30
2023-04-18T20:40:33.232Z,5.20
2023-04-18T20:42:34.789Z,5.18
2023-04-18T20:44:36.615Z,5.53
2023-04-18T20:46:38.191Z,5.07
2023-04-18T20:48:40.075Z,5.40
2023-04-18T20:50:43.859Z,5.00
2023-04-18T20:52:45.349Z,5.40
2023-04-18T20:54:46.787Z,5.40
2023-04-18T20:56:48.281Z,4.97
2023-04-18T20:58:49.730Z,5.10
2023-04-18T21:00:52.079Z,5.15
2023-04-18T21:02:53.638Z,5.47
2023-04-18T21:04:55.213Z,5.13
2023-04-18T21:06:56.736Z,5.45
2023-04-18T21:08:58.234Z,5.25
2023-04-18T21:10:59.688Z,5.43
2023-04-18T21:13:01.176Z,5.60
2023-04-18T21:15:02.737Z,5.32
2023-04-18T21:17:04.201Z,5.25
2023-04-18T21:19:06.854Z,5.03
2023-04-18T21:21:08.927Z,5.38
2023-04-18T21:23:10.366Z,5.70
2023-04-18T21:25:11.903Z,5.10
2023-04-18T21:27:13.452Z,5.60
2023-04-18T21:29:14.914Z,6.10
2023-04-18T21:31:16.451Z,5.32
2023-04-18T21:33:19.231Z,4.88
2023-04-18T21:35:22.011Z,4.60
2023-04-18T21:37:25.727Z,4.85
2023-04-18T21:39:27.666Z,5.05
2023-04-18T21:41:29.390Z,5.30
2023-04-18T21:43:30.847Z,4.93
2023-04-18T21:45:33.673Z,5.40
2023-04-18T21:47:35.215Z,5.22
2023-04-18T21:49:36.693Z,5.15
2023-04-18T21:51:38.147Z,4.88
2023-04-18T21:53:40.491Z,5.15
2023-04-18T21:55:41.949Z,5.88
2023-04-18T21:57:43.602Z,4.88
2023-04-18T21:59:45.085Z,4.82
2023-04-18T22:01:46.564Z,4.68
2023-04-18T22:03:48.181Z,4.63
2023-04-18T22:05:52.240Z,4.88
2023-04-18T22:07:58.111Z,4.70
2023-04-18T22:10:00.276Z,4.07
2023-04-18T22:12:03.579Z,4.80
2023-04-18T22:14:05.189Z,4.22
2023-04-18T22:16:08.200Z,4.40
2023-04-18T22:18:09.841Z,4.80
2023-04-18T22:20:11.787Z,5.20
2023-04-18T22:22:13.283Z,4.65
2023-04-18T22:24:14.937Z,4.15
2023-04-18T22:26:16.610Z,4.50
2023-04-18T22:28:18.083Z,4.47
2023-04-18T22:30:19.610Z,4.68
2023-04-18T22:32:21.144Z,4.22
2023-04-18T22:34:22.642Z,4.80
2023-04-18T22:36:24.932Z,4.15
2023-04-18T22:38:26.441Z,4.70
2023-04-18T22:40:27.929Z,4.30
2023-04-18T22:42:30.054Z,5.20
2023-04-18T22:44:31.661Z,4.38
2023-04-18T22:46:33.217Z,4.35
2023-04-18T22:48:35.180Z,4.47
2023-04-18T22:50:37.851Z,4.50
2023-04-18T22:52:39.411Z,4.47
2023-04-18T22:54:41.048Z,5.05
2023-04-18T22:56:42.597Z,4.28
2023-04-18T22:58:44.052Z,4.00
2023-04-18T23:00:45.564Z,4.28
2023-04-18T23:02:47.069Z,4.40
2023-04-18T23:04:49.301Z,4.30
2023-04-18T23:06:50.861Z,4.07
2023-04-18T23:08:52.359Z,4.30
2023-04-18T23:10:53.907Z,4.47
2023-04-18T23:12:55.581Z,3.95
2023-04-18T23:14:57.228Z,4.00
2023-04-18T23:16:58.693Z,3.90
2023-04-18T23:19:00.402Z,4.38
2023-04-18T23:21:01.920Z,4.38
2023-04-18T23:23:03.560Z,4.40
2023-04-18T23:25:05.610Z,4.90
2023-04-18T23:27:07.150Z,4.45
2023-04-18T23:29:08.594Z,4.00
2023-04-18T23:31:10.181Z,4.13
2023-04-18T23:33:11.647Z,3.88
2023-04-18T23:35:13.094Z,4.13
2023-04-18T23:37:14.567Z,3.67
2023-04-18T23:39:18.500Z,4.07
2023-04-18T23:41:20.027Z,4.47
2023-04-18T23:43:21.664Z,3.58
2023-04-18T23:45:24.384Z,3.55
2023-04-18T23:47:26.041Z,3.40
2023-04-18T23:49:28.419Z,3.40
2023-04-18T23:51:29.933Z,3.35
2023-04-18T23:53:31.401Z,3.17
2023-04-18T23:55:32.853Z,3.45
2023-04-18T23:57:34.387Z,3.25
2023-04-18T23:59:36.090Z,3.63
